sensor_id;sensor_type;location;lat;lon;timestamp;pressure;altitude;pressure_sealevel;temperature;humidity
11345;BME280;5727;42.600;23.028;2023-05-02T00:01:14;93982.38;;;11.16;100.00
11345;BME280;5727;42.600;23.028;2023-05-02T00:03:41;93981.59;;;11.15;100.00
11345;BME280;5727;42.600;23.028;2023-05-02T00:06:09;93980.81;;;11.15;100.00
11345;BME280;5727;42.600;23.028;2023-05-02T00:08:36;93974.06;;;11.14;100.00
11345;BME280;5727;42.600;23.028;2023-05-02T00:11:03;93977.63;;;11.09;100.00
11345;BME280;5727;42.600;23.028;2023-05-02T00:13:29;93976.41;;;11.06;100.00
11345;BME280;5727;42.600;23.028;2023-05-02T00:15:58;93974.66;;;10.98;100.00
11345;BME280;5727;42.600;23.028;2023-05-02T00:18:24;93983.34;;;10.90;100.00
11345;BME280;5727;42.600;23.028;2023-05-02T00:20:51;93975.66;;;10.85;100.00
11345;BME280;5727;42.600;23.028;2023-05-02T00:23:18;93973.81;;;10.86;100.00
11345;BME280;5727;42.600;23.028;2023-05-02T00:25:44;93973.56;;;10.79;100.00
11345;BME280;5727;42.600;23.028;2023-05-02T00:28:11;93976.50;;;10.77;100.00
11345;BME280;5727;42.600;23.028;2023-05-02T00:30:41;93974.50;;;10.74;100.00
11345;BME280;5727;42.600;23.028;2023-05-02T00:33:10;93977.00;;;10.71;100.00
11345;BME280;5727;42.600;23.028;2023-05-02T00:35:39;93984.09;;;10.70;100.00
11345;BME280;5727;42.600;23.028;2023-05-02T00:38:06;93989.34;;;10.70;100.00
11345;BME280;5727;42.600;23.028;2023-05-02T00:40:41;93990.94;;;10.63;100.00
11345;BME280;5727;42.600;23.028;2023-05-02T00:43:09;93988.31;;;10.63;100.00
11345;BME280;5727;42.600;23.028;2023-05-02T00:45:36;93988.06;;;10.56;100.00
11345;BME280;5727;42.600;23.028;2023-05-02T00:48:05;93987.47;;;10.50;100.00
11345;BME280;5727;42.600;23.028;2023-05-02T00:50:34;93985.00;;;10.45;100.00
11345;BME280;5727;42.600;23.028;2023-05-02T00:53:03;93977.34;;;10.40;100.00
11345;BME280;5727;42.600;23.028;2023-05-02T00:55:30;93983.97;;;10.38;100.00
11345;BME280;5727;42.600;23.028;2023-05-02T00:57:57;93983.97;;;10.38;100.00
11345;BME280;5727;42.600;23.028;2023-05-02T01:00:29;93984.75;;;10.38;100.00
11345;BME280;5727;42.600;23.028;2023-05-02T01:03:06;93982.78;;;10.35;100.00
11345;BME280;5727;42.600;23.028;2023-05-02T01:05:44;93981.22;;;10.34;100.00
11345;BME280;5727;42.600;23.028;2023-05-02T01:08:19;93978.16;;;10.32;100.00
11345;BME280;5727;42.600;23.028;2023-05-02T01:10:54;93978.03;;;10.29;100.00
11345;BME280;5727;42.600;23.028;2023-05-02T01:13:28;93973.72;;;10.24;100.00
11345;BME280;5727;42.600;23.028;2023-05-02T01:15:58;93978.06;;;10.20;100.00
11345;BME280;5727;42.600;23.028;2023-05-02T01:18:30;93979.47;;;10.18;100.00
11345;BME280;5727;42.600;23.028;2023-05-02T01:21:01;93977.81;;;10.13;100.00
11345;BME280;5727;42.600;23.028;2023-05-02T01:23:42;93980.28;;;10.09;100.00
11345;BME280;5727;42.600;23.028;2023-05-02T01:26:16;93981.63;;;10.07;100.00
11345;BME280;5727;42.600;23.028;2023-05-02T01:28:59;93978.75;;;10.00;100.00
11345;BME280;5727;42.600;23.028;2023-05-02T01:31:30;93979.41;;;9.97;100.00
11345;BME280;5727;42.600;23.028;2023-05-02T01:33:57;93976.31;;;9.95;100.00
11345;BME280;5727;42.600;23.028;2023-05-02T01:36:28;93985.25;;;9.94;100.00
11345;BME280;5727;42.600;23.028;2023-05-02T01:38:56;93978.50;;;9.93;100.00
11345;BME280;5727;42.600;23.028;2023-05-02T01:41:25;93986.63;;;9.91;100.00
11345;BME280;5727;42.600;23.028;2023-05-02T01:43:54;93978.03;;;9.91;100.00
11345;BME280;5727;42.600;23.028;2023-05-02T01:46:25;93978.19;;;9.86;100.00
11345;BME280;5727;42.600;23.028;2023-05-02T01:48:53;93987.44;;;9.83;100.00
11345;BME280;5727;42.600;23.028;2023-05-02T01:51:25;93978.06;;;9.82;100.00
11345;BME280;5727;42.600;23.028;2023-05-02T01:53:54;93979.88;;;9.82;100.00
11345;BME280;5727;42.600;23.028;2023-05-02T01:56:23;93988.69;;;9.77;100.00
11345;BME280;5727;42.600;23.028;2023-05-02T01:58:52;93981.59;;;9.78;100.00
11345;BME280;5727;42.600;23.028;2023-05-02T02:01:21;93983.78;;;9.76;100.00
11345;BME280;5727;42.600;23.028;2023-05-02T02:03:53;93988.88;;;9.64;100.00
11345;BME280;5727;42.600;23.028;2023-05-02T02:06:22;93984.72;;;9.63;100.00
11345;BME280;5727;42.600;23.028;2023-05-02T02:08:49;93984.44;;;9.64;100.00
11345;BME280;5727;42.600;23.028;2023-05-02T02:11:22;93995.69;;;9.56;100.00
11345;BME280;5727;42.600;23.028;2023-05-02T02:13:56;93984.44;;;9.56;100.00
11345;BME280;5727;42.600;23.028;2023-05-02T02:16:32;93989.69;;;9.56;100.00
11345;BME280;5727;42.600;23.028;2023-05-02T02:19:05;93994.44;;;9.54;100.00
11345;BME280;5727;42.600;23.028;2023-05-02T02:21:33;93989.41;;;9.49;100.00
11345;BME280;5727;42.600;23.028;2023-05-02T02:24:04;93993.84;;;9.48;100.00
11345;BME280;5727;42.600;23.028;2023-05-02T02:26:32;93997.84;;;9.46;100.00
11345;BME280;5727;42.600;23.028;2023-05-02T02:28:59;93999.69;;;9.45;100.00
11345;BME280;5727;42.600;23.028;2023-05-02T02:31:29;94000.16;;;9.39;100.00
11345;BME280;5727;42.600;23.028;2023-05-02T02:33:56;93994.34;;;9.33;100.00
11345;BME280;5727;42.600;23.028;2023-05-02T02:36:28;93996.63;;;9.26;100.00
11345;BME280;5727;42.600;23.028;2023-05-02T02:39:03;93993.13;;;9.22;100.00
11345;BME280;5727;42.600;23.028;2023-05-02T02:41:41;93988.50;;;9.19;100.00
11345;BME280;5727;42.600;23.028;2023-05-02T02:44:29;93993.88;;;9.22;100.00
11345;BME280;5727;42.600;23.028;2023-05-02T02:47:04;93993.28;;;9.00;100.00
11345;BME280;5727;42.600;23.028;2023-05-02T02:49:42;94000.50;;;8.94;100.00
11345;BME280;5727;42.600;23.028;2023-05-02T02:52:20;93992.97;;;8.93;100.00
11345;BME280;5727;42.600;23.028;2023-05-02T02:54:51;93993.91;;;8.88;100.00
11345;BME280;5727;42.600;23.028;2023-05-02T02:57:27;93993.25;;;8.74;100.00
11345;BME280;5727;42.600;23.028;2023-05-02T03:00:08;93998.34;;;8.62;100.00
11345;BME280;5727;42.600;23.028;2023-05-02T03:02:38;93998.66;;;8.69;100.00
11345;BME280;5727;42.600;23.028;2023-05-02T03:05:08;93996.66;;;8.75;100.00
11345;BME280;5727;42.600;23.028;2023-05-02T03:07:37;93988.34;;;8.73;100.00
11345;BME280;5727;42.600;23.028;2023-05-02T03:10:05;93995.13;;;8.74;100.00
11345;BME280;5727;42.600;23.028;2023-05-02T03:12:32;93992.66;;;8.69;100.00
11345;BME280;5727;42.600;23.028;2023-05-02T03:15:08;93988.81;;;8.66;100.00
11345;BME280;5727;42.600;23.028;2023-05-02T03:17:38;93996.19;;;8.64;100.00
11345;BME280;5727;42.600;23.028;2023-05-02T03:20:05;93999.41;;;8.70;100.00
11345;BME280;5727;42.600;23.028;2023-05-02T03:22:32;93999.13;;;8.71;100.00
11345;BME280;5727;42.600;23.028;2023-05-02T03:25:00;93997.44;;;8.75;100.00
11345;BME280;5727;42.600;23.028;2023-05-02T03:27:27;93998.81;;;8.81;100.00
11345;BME280;5727;42.600;23.028;2023-05-02T03:29:56;93996.66;;;8.83;100.00
11345;BME280;5727;42.600;23.028;2023-05-02T03:32:23;94000.81;;;8.84;100.00
11345;BME280;5727;42.600;23.028;2023-05-02T03:34:49;94009.88;;;8.87;100.00
11345;BME280;5727;42.600;23.028;2023-05-02T03:37:16;94000.50;;;8.86;100.00
11345;BME280;5727;42.600;23.028;2023-05-02T03:39:43;93997.44;;;8.92;100.00
11345;BME280;5727;42.600;23.028;2023-05-02T03:42:11;94003.28;;;8.89;100.00
11345;BME280;5727;42.600;23.028;2023-05-02T03:44:38;94008.94;;;8.91;100.00
11345;BME280;5727;42.600;23.028;2023-05-02T03:47:04;94011.09;;;8.98;100.00
11345;BME280;5727;42.600;23.028;2023-05-02T03:49:33;94015.56;;;8.97;100.00
11345;BME280;5727;42.600;23.028;2023-05-02T03:52:00;94010.06;;;8.99;100.00
11345;BME280;5727;42.600;23.028;2023-05-02T03:54:31;94006.34;;;8.91;100.00
11345;BME280;5727;42.600;23.028;2023-05-02T03:56:57;94005.09;;;8.97;100.00
11345;BME280;5727;42.600;23.028;2023-05-02T03:59:26;94012.03;;;9.02;100.00
11345;BME280;5727;42.600;23.028;2023-05-02T04:01:53;94020.63;;;9.11;100.00
11345;BME280;5727;42.600;23.028;2023-05-02T04:04:20;94018.34;;;9.18;100.00
11345;BME280;5727;42.600;23.028;2023-05-02T04:06:47;94022.63;;;9.22;100.00
11345;BME280;5727;42.600;23.028;2023-05-02T04:09:14;94020.81;;;9.32;100.00
11345;BME280;5727;42.600;23.028;2023-05-02T04:11:40;94016.19;;;9.37;100.00
11345;BME280;5727;42.600;23.028;2023-05-02T04:14:07;94020.47;;;9.42;100.00
11345;BME280;5727;42.600;23.028;2023-05-02T04:16:35;94025.69;;;9.50;100.00
11345;BME280;5727;42.600;23.028;2023-05-02T04:19:02;94020.31;;;9.47;100.00
11345;BME280;5727;42.600;23.028;2023-05-02T04:21:28;94019.69;;;9.24;100.00
11345;BME280;5727;42.600;23.028;2023-05-02T04:23:56;94022.63;;;9.05;100.00
11345;BME280;5727;42.600;23.028;2023-05-02T04:26:22;94018.97;;;8.89;100.00
11345;BME280;5727;42.600;23.028;2023-05-02T04:28:50;94036.78;;;8.87;100.00
11345;BME280;5727;42.600;23.028;2023-05-02T04:31:16;94028.16;;;8.95;100.00
11345;BME280;5727;42.600;23.028;2023-05-02T04:33:45;94030.03;;;9.03;100.00
11345;BME280;5727;42.600;23.028;2023-05-02T04:36:13;94034.16;;;9.13;100.00
11345;BME280;5727;42.600;23.028;2023-05-02T04:38:40;94032.03;;;9.15;100.00
11345;BME280;5727;42.600;23.028;2023-05-02T04:41:07;94032.63;;;9.20;100.00
11345;BME280;5727;42.600;23.028;2023-05-02T04:43:33;94033.22;;;9.26;100.00
11345;BME280;5727;42.600;23.028;2023-05-02T04:46:00;94037.38;;;9.36;100.00
11345;BME280;5727;42.600;23.028;2023-05-02T04:48:27;94035.41;;;9.15;100.00
11345;BME280;5727;42.600;23.028;2023-05-02T04:50:55;94027.88;;;9.22;100.00
11345;BME280;5727;42.600;23.028;2023-05-02T04:53:22;94030.78;;;9.30;100.00
11345;BME280;5727;42.600;23.028;2023-05-02T04:55:48;94032.78;;;9.24;100.00
11345;BME280;5727;42.600;23.028;2023-05-02T04:58:15;94039.41;;;9.39;100.00
11345;BME280;5727;42.600;23.028;2023-05-02T05:00:42;94031.88;;;9.37;100.00
11345;BME280;5727;42.600;23.028;2023-05-02T05:03:09;94031.56;;;9.39;100.00
11345;BME280;5727;42.600;23.028;2023-05-02T05:05:35;94027.25;;;9.43;100.00
11345;BME280;5727;42.600;23.028;2023-05-02T05:08:04;94034.47;;;9.37;100.00
11345;BME280;5727;42.600;23.028;2023-05-02T05:10:30;94031.84;;;9.46;100.00
11345;BME280;5727;42.600;23.028;2023-05-02T05:12:57;94034.13;;;9.56;100.00
11345;BME280;5727;42.600;23.028;2023-05-02T05:15:24;94036.28;;;9.62;100.00
11345;BME280;5727;42.600;23.028;2023-05-02T05:17:51;94029.50;;;9.70;100.00
11345;BME280;5727;42.600;23.028;2023-05-02T05:20:18;94036.72;;;9.81;100.00
11345;BME280;5727;42.600;23.028;2023-05-02T05:22:45;94042.22;;;9.97;100.00
11345;BME280;5727;42.600;23.028;2023-05-02T05:25:13;94042.22;;;9.97;100.00
11345;BME280;5727;42.600;23.028;2023-05-02T05:27:40;94039.28;;;9.98;100.00
11345;BME280;5727;42.600;23.028;2023-05-02T05:30:07;94050.19;;;10.00;100.00
11345;BME280;5727;42.600;23.028;2023-05-02T05:32:34;94050.50;;;9.99;100.00
11345;BME280;5727;42.600;23.028;2023-05-02T05:35:01;94057.56;;;10.07;100.00
11345;BME280;5727;42.600;23.028;2023-05-02T05:37:28;94051.53;;;10.24;100.00
11345;BME280;5727;42.600;23.028;2023-05-02T05:39:55;94046.00;;;10.17;100.00
11345;BME280;5727;42.600;23.028;2023-05-02T05:42:24;94047.97;;;10.28;100.00
11345;BME280;5727;42.600;23.028;2023-05-02T05:44:51;94043.75;;;10.36;100.00
11345;BME280;5727;42.600;23.028;2023-05-02T05:47:18;94046.69;;;10.43;100.00
11345;BME280;5727;42.600;23.028;2023-05-02T05:49:46;94050.13;;;10.64;100.00
11345;BME280;5727;42.600;23.028;2023-05-02T05:52:12;94055.28;;;10.72;100.00
11345;BME280;5727;42.600;23.028;2023-05-02T05:54:39;94052.91;;;10.88;100.00
11345;BME280;5727;42.600;23.028;2023-05-02T05:57:06;94050.53;;;10.95;100.00
11345;BME280;5727;42.600;23.028;2023-05-02T05:59:35;94061.66;;;11.13;100.00
11345;BME280;5727;42.600;23.028;2023-05-02T06:02:02;94054.25;;;11.15;100.00
11345;BME280;5727;42.600;23.028;2023-05-02T06:04:29;94053.88;;;11.25;100.00
11345;BME280;5727;42.600;23.028;2023-05-02T06:06:56;94053.50;;;11.35;100.00
11345;BME280;5727;42.600;23.028;2023-05-02T06:09:23;94055.41;;;11.46;100.00
11345;BME280;5727;42.600;23.028;2023-05-02T06:11:50;94056.28;;;11.50;100.00
11345;BME280;5727;42.600;23.028;2023-05-02T06:14:17;94053.88;;;11.66;100.00
11345;BME280;5727;42.600;23.028;2023-05-02T06:16:45;94059.19;;;11.90;100.00
11345;BME280;5727;42.600;23.028;2023-05-02T06:19:12;94060.56;;;12.08;100.00
11345;BME280;5727;42.600;23.028;2023-05-02T06:21:39;94063.44;;;12.27;100.00
11345;BME280;5727;42.600;23.028;2023-05-02T06:24:06;94057.97;;;12.44;100.00
11345;BME280;5727;42.600;23.028;2023-05-02T06:26:32;94053.28;;;12.62;100.00
11345;BME280;5727;42.600;23.028;2023-05-02T06:28:59;94050.84;;;12.81;100.00
11345;BME280;5727;42.600;23.028;2023-05-02T06:31:26;94059.03;;;12.92;100.00
11345;BME280;5727;42.600;23.028;2023-05-02T06:33:55;94059.72;;;12.88;100.00
11345;BME280;5727;42.600;23.028;2023-05-02T06:36:22;94052.81;;;12.84;100.00
11345;BME280;5727;42.600;23.028;2023-05-02T06:38:48;94047.97;;;12.86;100.00
11345;BME280;5727;42.600;23.028;2023-05-02T06:41:15;94050.06;;;12.93;100.00
11345;BME280;5727;42.600;23.028;2023-05-02T06:43:42;94053.56;;;13.09;100.00
11345;BME280;5727;42.600;23.028;2023-05-02T06:46:08;94050.03;;;13.17;100.00
11345;BME280;5727;42.600;23.028;2023-05-02T06:48:35;94050.56;;;13.22;100.00
11345;BME280;5727;42.600;23.028;2023-05-02T06:51:03;94051.06;;;13.40;100.00
11345;BME280;5727;42.600;23.028;2023-05-02T06:53:30;94046.41;;;13.61;100.00
11345;BME280;5727;42.600;23.028;2023-05-02T06:55:56;94046.69;;;13.71;100.00
11345;BME280;5727;42.600;23.028;2023-05-02T06:58:23;94048.50;;;13.83;100.00
11345;BME280;5727;42.600;23.028;2023-05-02T07:00:50;94053.19;;;13.90;100.00
11345;BME280;5727;42.600;23.028;2023-05-02T07:03:17;94051.81;;;13.96;100.00
11345;BME280;5727;42.600;23.028;2023-05-02T07:05:44;94057.34;;;14.06;100.00
11345;BME280;5727;42.600;23.028;2023-05-02T07:08:12;94048.63;;;14.18;100.00
11345;BME280;5727;42.600;23.028;2023-05-02T07:10:38;94062.34;;;14.23;96.85
11345;BME280;5727;42.600;23.028;2023-05-02T07:13:05;94064.03;;;14.31;97.31
11345;BME280;5727;42.600;23.028;2023-05-02T07:15:32;94065.84;;;14.43;97.53
11345;BME280;5727;42.600;23.028;2023-05-02T07:17:59;94077.25;;;14.62;95.95
11345;BME280;5727;42.600;23.028;2023-05-02T07:20:26;94070.34;;;14.74;95.52
11345;BME280;5727;42.600;23.028;2023-05-02T07:22:52;94069.75;;;14.64;98.44
11345;BME280;5727;42.600;23.028;2023-05-02T07:25:20;94066.34;;;14.64;99.00
11345;BME280;5727;42.600;23.028;2023-05-02T07:27:47;94074.50;;;14.75;99.52
11345;BME280;5727;42.600;23.028;2023-05-02T07:30:14;94067.59;;;14.86;100.00
11345;BME280;5727;42.600;23.028;2023-05-02T07:32:41;94068.09;;;14.91;98.60
11345;BME280;5727;42.600;23.028;2023-05-02T07:35:08;94074.31;;;14.83;99.44
11345;BME280;5727;42.600;23.028;2023-05-02T07:37:34;94071.50;;;14.92;99.64
11345;BME280;5727;42.600;23.028;2023-05-02T07:40:02;94061.19;;;15.02;98.25
11345;BME280;5727;42.600;23.028;2023-05-02T07:42:30;94072.16;;;15.04;98.68
11345;BME280;5727;42.600;23.028;2023-05-02T07:44:58;94063.50;;;15.04;100.00
11345;BME280;5727;42.600;23.028;2023-05-02T07:47:24;94077.19;;;15.09;98.40
11345;BME280;5727;42.600;23.028;2023-05-02T07:49:52;94073.78;;;15.09;97.40
11345;BME280;5727;42.600;23.028;2023-05-02T07:52:20;94075.13;;;15.18;97.85
11345;BME280;5727;42.600;23.028;2023-05-02T07:54:47;94079.09;;;15.28;98.05
11345;BME280;5727;42.600;23.028;2023-05-02T07:57:14;94074.31;;;15.33;98.89
11345;BME280;5727;42.600;23.028;2023-05-02T07:59:42;94076.19;;;15.33;98.04
11345;BME280;5727;42.600;23.028;2023-05-02T08:02:09;94075.13;;;15.18;98.88
11345;BME280;5727;42.600;23.028;2023-05-02T08:04:38;94079.03;;;15.24;97.79
11345;BME280;5727;42.600;23.028;2023-05-02T08:07:05;94072.72;;;15.29;96.92
11345;BME280;5727;42.600;23.028;2023-05-02T08:09:31;94071.78;;;15.56;96.10
11345;BME280;5727;42.600;23.028;2023-05-02T08:11:58;94066.78;;;15.89;94.40
11345;BME280;5727;42.600;23.028;2023-05-02T08:14:27;94069.03;;;16.10;93.03
11345;BME280;5727;42.600;23.028;2023-05-02T08:16:55;94069.75;;;16.29;91.53
11345;BME280;5727;42.600;23.028;2023-05-02T08:19:21;94076.22;;;16.09;87.37
11345;BME280;5727;42.600;23.028;2023-05-02T08:21:48;94078.38;;;16.04;83.65
11345;BME280;5727;42.600;23.028;2023-05-02T08:24:15;94069.13;;;16.13;85.91
11345;BME280;5727;42.600;23.028;2023-05-02T08:26:41;94077.22;;;16.24;86.31
11345;BME280;5727;42.600;23.028;2023-05-02T08:29:08;94074.38;;;16.32;84.53
11345;BME280;5727;42.600;23.028;2023-05-02T08:31:36;94073.75;;;16.42;83.86
11345;BME280;5727;42.600;23.028;2023-05-02T08:34:04;94077.19;;;16.66;80.21
11345;BME280;5727;42.600;23.028;2023-05-02T08:36:31;94081.00;;;16.91;80.52
11345;BME280;5727;42.600;23.028;2023-05-02T08:38:57;94067.75;;;17.13;77.79
11345;BME280;5727;42.600;23.028;2023-05-02T08:41:24;94073.66;;;17.33;73.31
11345;BME280;5727;42.600;23.028;2023-05-02T08:43:55;94074.59;;;17.44;65.41
11345;BME280;5727;42.600;23.028;2023-05-02T08:46:22;94053.66;;;17.35;64.81
11345;BME280;5727;42.600;23.028;2023-05-02T08:48:51;94056.75;;;17.41;65.26
11345;BME280;5727;42.600;23.028;2023-05-02T08:51:22;94051.31;;;17.30;64.43
11345;BME280;5727;42.600;23.028;2023-05-02T08:53:51;94052.59;;;17.40;65.43
11345;BME280;5727;42.600;23.028;2023-05-02T08:56:18;94049.81;;;17.59;66.90
11345;BME280;5727;42.600;23.028;2023-05-02T08:58:44;94047.72;;;17.75;64.29
11345;BME280;5727;42.600;23.028;2023-05-02T09:01:14;94048.41;;;18.02;64.97
11345;BME280;5727;42.600;23.028;2023-05-02T09:03:42;94054.00;;;18.30;64.67
11345;BME280;5727;42.600;23.028;2023-05-02T09:06:10;94053.25;;;18.33;64.62
11345;BME280;5727;42.600;23.028;2023-05-02T09:08:40;94051.63;;;18.62;65.41
11345;BME280;5727;42.600;23.028;2023-05-02T09:11:08;94044.66;;;18.43;61.26
11345;BME280;5727;42.600;23.028;2023-05-02T09:13:36;94045.25;;;18.66;62.76
11345;BME280;5727;42.600;23.028;2023-05-02T09:16:04;94038.28;;;18.51;60.60
11345;BME280;5727;42.600;23.028;2023-05-02T09:18:33;94038.88;;;18.78;61.12
11345;BME280;5727;42.600;23.028;2023-05-02T09:21:03;94039.81;;;18.99;61.04
11345;BME280;5727;42.600;23.028;2023-05-02T09:23:37;94038.66;;;19.00;59.13
11345;BME280;5727;42.600;23.028;2023-05-02T09:26:15;94037.94;;;18.53;57.80
11345;BME280;5727;42.600;23.028;2023-05-02T09:28:43;94040.00;;;18.33;59.67
11345;BME280;5727;42.600;23.028;2023-05-02T09:31:12;94023.66;;;18.27;60.94
11345;BME280;5727;42.600;23.028;2023-05-02T09:33:39;94027.25;;;18.46;62.31
11345;BME280;5727;42.600;23.028;2023-05-02T09:36:07;94019.75;;;18.55;58.96
11345;BME280;5727;42.600;23.028;2023-05-02T09:38:34;94028.84;;;18.54;55.30
11345;BME280;5727;42.600;23.028;2023-05-02T09:41:01;94012.97;;;18.61;55.65
11345;BME280;5727;42.600;23.028;2023-05-02T09:43:30;94018.72;;;18.70;55.81
11345;BME280;5727;42.600;23.028;2023-05-02T09:45:58;94018.09;;;18.87;54.96
11345;BME280;5727;42.600;23.028;2023-05-02T09:48:26;94015.13;;;18.99;50.84
11345;BME280;5727;42.600;23.028;2023-05-02T09:50:53;94004.81;;;18.90;49.11
11345;BME280;5727;42.600;23.028;2023-05-02T09:53:20;94006.38;;;18.95;50.26
11345;BME280;5727;42.600;23.028;2023-05-02T09:55:47;94011.00;;;19.08;52.01
11345;BME280;5727;42.600;23.028;2023-05-02T09:58:21;94008.84;;;19.28;52.92
11345;BME280;5727;42.600;23.028;2023-05-02T10:00:50;94004.16;;;19.04;50.31
11345;BME280;5727;42.600;23.028;2023-05-02T10:03:18;94003.44;;;19.10;52.75
11345;BME280;5727;42.600;23.028;2023-05-02T10:05:45;93991.63;;;18.97;51.08
11345;BME280;5727;42.600;23.028;2023-05-02T10:08:13;93983.13;;;18.78;51.34
11345;BME280;5727;42.600;23.028;2023-05-02T10:10:45;93982.78;;;18.83;49.90
11345;BME280;5727;42.600;23.028;2023-05-02T10:13:12;93990.34;;;18.77;50.02
11345;BME280;5727;42.600;23.028;2023-05-02T10:15:43;93980.94;;;18.40;50.47
11345;BME280;5727;42.600;23.028;2023-05-02T10:18:27;93986.50;;;18.71;51.67
11345;BME280;5727;42.600;23.028;2023-05-02T10:20:57;93984.47;;;19.08;53.17
11345;BME280;5727;42.600;23.028;2023-05-02T10:23:25;93992.13;;;19.24;51.83
11345;BME280;5727;42.600;23.028;2023-05-02T10:25:53;93989.59;;;19.49;51.43
11345;BME280;5727;42.600;23.028;2023-05-02T10:28:20;93980.56;;;19.67;48.96
11345;BME280;5727;42.600;23.028;2023-05-02T10:30:49;93977.59;;;19.93;49.80
11345;BME280;5727;42.600;23.028;2023-05-02T10:33:19;93971.53;;;20.14;49.34
11345;BME280;5727;42.600;23.028;2023-05-02T10:35:46;93974.25;;;20.25;47.30
11345;BME280;5727;42.600;23.028;2023-05-02T10:38:15;93972.72;;;20.52;47.78
11345;BME280;5727;42.600;23.028;2023-05-02T10:40:51;93967.38;;;20.73;46.38
11345;BME280;5727;42.600;23.028;2023-05-02T10:43:22;93971.94;;;20.79;46.96
11345;BME280;5727;42.600;23.028;2023-05-02T10:45:51;93963.94;;;20.93;46.18
11345;BME280;5727;42.600;23.028;2023-05-02T10:48:21;93965.47;;;20.91;44.56
11345;BME280;5727;42.600;23.028;2023-05-02T10:50:50;93969.25;;;21.11;45.12
11345;BME280;5727;42.600;23.028;2023-05-02T10:53:24;93963.47;;;21.27;44.65
11345;BME280;5727;42.600;23.028;2023-05-02T10:56:21;93962.81;;;21.02;43.63
11345;BME280;5727;42.600;23.028;2023-05-02T10:58:51;93966.59;;;20.93;44.04
11345;BME280;5727;42.600;23.028;2023-05-02T11:01:34;93964.28;;;21.13;45.06
11345;BME280;5727;42.600;23.028;2023-05-02T11:04:09;93957.81;;;21.14;44.72
11345;BME280;5727;42.600;23.028;2023-05-02T11:09:40;93960.41;;;21.35;44.75
11345;BME280;5727;42.600;23.028;2023-05-02T11:12:07;93950.09;;;21.51;44.70
11345;BME280;5727;42.600;23.028;2023-05-02T11:14:44;93955.06;;;21.42;44.19
11345;BME280;5727;42.600;23.028;2023-05-02T11:17:13;93944.03;;;21.44;44.91
11345;BME280;5727;42.600;23.028;2023-05-02T11:23:22;93937.56;;;21.41;43.53
11345;BME280;5727;42.600;23.028;2023-05-02T11:25:53;93934.59;;;21.15;44.25
11345;BME280;5727;42.600;23.028;2023-05-02T11:28:42;93932.34;;;21.06;44.69
11345;BME280;5727;42.600;23.028;2023-05-02T11:31:52;93928.56;;;21.07;43.40
11345;BME280;5727;42.600;23.028;2023-05-02T11:34:20;93926.28;;;20.84;45.00
11345;BME280;5727;42.600;23.028;2023-05-02T11:36:47;93918.69;;;20.76;44.23
11345;BME280;5727;42.600;23.028;2023-05-02T11:39:19;93914.13;;;20.83;43.63
11345;BME280;5727;42.600;23.028;2023-05-02T11:41:47;93919.41;;;20.94;43.79
11345;BME280;5727;42.600;23.028;2023-05-02T11:44:15;93916.34;;;21.06;43.47
11345;BME280;5727;42.600;23.028;2023-05-02T11:46:43;93904.59;;;20.89;44.46
11345;BME280;5727;42.600;23.028;2023-05-02T11:49:10;93909.13;;;20.92;45.09
11345;BME280;5727;42.600;23.028;2023-05-02T11:51:38;93914.03;;;21.22;44.83
11345;BME280;5727;42.600;23.028;2023-05-02T11:54:06;93909.25;;;21.65;44.01
11345;BME280;5727;42.600;23.028;2023-05-02T11:56:34;93901.63;;;23.07;40.60
11345;BME280;5727;42.600;23.028;2023-05-02T11:59:02;93899.84;;;23.60;38.91
11345;BME280;5727;42.600;23.028;2023-05-02T12:01:29;93898.72;;;23.58;38.42
11345;BME280;5727;42.600;23.028;2023-05-02T12:04:02;93895.75;;;23.19;39.20
11345;BME280;5727;42.600;23.028;2023-05-02T12:06:29;93885.44;;;22.87;40.06
11345;BME280;5727;42.600;23.028;2023-05-02T12:09:06;93892.66;;;22.49;40.04
11345;BME280;5727;42.600;23.028;2023-05-02T12:11:35;93890.38;;;22.44;39.71
11345;BME280;5727;42.600;23.028;2023-05-02T12:14:02;93876.59;;;22.56;40.13
11345;BME280;5727;42.600;23.028;2023-05-02T12:16:29;93874.72;;;22.46;38.67
11345;BME280;5727;42.600;23.028;2023-05-02T12:18:56;93867.16;;;22.82;38.84
11345;BME280;5727;42.600;23.028;2023-05-02T12:21:25;93855.47;;;24.39;35.48
11345;BME280;5727;42.600;23.028;2023-05-02T12:23:54;93855.19;;;24.11;36.60
11345;BME280;5727;42.600;23.028;2023-05-02T12:26:22;93852.59;;;24.04;36.93
11345;BME280;5727;42.600;23.028;2023-05-02T12:28:52;93847.34;;;23.97;37.91
11345;BME280;5727;42.600;23.028;2023-05-02T12:31:20;93852.94;;;24.06;37.15
11345;BME280;5727;42.600;23.028;2023-05-02T12:33:46;93835.22;;;23.89;35.01
11345;BME280;5727;42.600;23.028;2023-05-02T12:36:14;93842.00;;;23.43;36.20
11345;BME280;5727;42.600;23.028;2023-05-02T12:38:47;93848.28;;;22.96;37.03
11345;BME280;5727;42.600;23.028;2023-05-02T12:41:15;93834.22;;;22.92;39.01
11345;BME280;5727;42.600;23.028;2023-05-02T12:43:44;93833.59;;;22.81;38.40
11345;BME280;5727;42.600;23.028;2023-05-02T12:46:13;93837.78;;;22.82;39.01
11345;BME280;5727;42.600;23.028;2023-05-02T12:48:40;93826.84;;;22.69;38.18
11345;BME280;5727;42.600;23.028;2023-05-02T12:51:19;93823.41;;;22.69;38.76
11345;BME280;5727;42.600;23.028;2023-05-02T12:53:46;93822.41;;;22.52;38.39
11345;BME280;5727;42.600;23.028;2023-05-02T12:56:13;93825.91;;;22.49;37.14
11345;BME280;5727;42.600;23.028;2023-05-02T12:58:42;93817.38;;;22.61;37.96
11345;BME280;5727;42.600;23.028;2023-05-02T13:01:10;93819.78;;;22.49;37.95
11345;BME280;5727;42.600;23.028;2023-05-02T13:03:39;93819.25;;;22.68;38.17
11345;BME280;5727;42.600;23.028;2023-05-02T13:06:06;93811.75;;;22.86;35.82
11345;BME280;5727;42.600;23.028;2023-05-02T13:08:34;93804.19;;;23.15;35.18
11345;BME280;5727;42.600;23.028;2023-05-02T13:11:01;93807.97;;;24.43;34.12
11345;BME280;5727;42.600;23.028;2023-05-02T13:13:29;93801.28;;;25.98;31.92